Terminal Aerodrome Forecast
Issued by NWS

Current Version | Previous Version | Graphics & Text | Print | Product List | Glossary On
Versions: 1 2 3 4 5 6 7 8 9 10 11 12 13 14 15 16 17 18 19 20
000
FTUS41 KRNK 301738
TAFLWB
TAF
KLWB 301738Z 3018/0118 VRB06KT 6SM -SHRA OVC025
      TEMPO 3018/3020 2SM SHRA BKN015
     FM302000 21010G20KT 4SM -SHRA BR OVC015
     FM010000 27010KT P6SM -SHRA OVC008
     FM010200 26008KT P6SM VCSH OVC020
     FM010700 28005KT P6SM FEW015 OVC025
     FM011600 28010KT P6SM OVC025=

USA.gov is the U.S. government's official web portal to all federal, state and local government web resources and services.